Terminal Aerodrome Forecast
Issued by NWS

Home | Current Version | Previous Version | Text Only | Print | Product List | Glossary On
Versions: 1 2 3 4 5 6 7 8 9 10 11 12 13 14 15 16 17 18 19 20 21 22 23 24
171
FTUS43 KILX 250232 AAA
TAFCMI
TAF AMD
KCMI 250232Z 2503/2524 VRB25G45KT 1SM +TSRA BR BKN025CB
     FM250500 15009KT 6SM -RA VCTS BKN035CB
     FM251000 35004KT 5SM BR VCTS SCT025CB BKN120
     FM251400 36007KT P6SM SCT035 BKN250=

USA.gov is the U.S. government's official web portal to all federal, state and local government web resources and services.